Shawn Miller — WDD2268 — position and weather

sailwx.info

Track history (hours):
 
Tides and Currents Weather Stations Pressure Air Temp Water Temp Dewpoint Dewpoint Depression Visibility Wind Speed Wind Dir Waves Ship Positions

Shawn Miller

Owner: Miller's Tug & Barge, Staten Island, NY. More information available from US FCC via Universal Licensing System and Coast Guard Vessel Documentation Center.

Last reported at 2018-May-25 16:58 UTC. Time now 2018-May-26 23:34 UTC.
Position N 40°38' W 074°04'.

Length 16 m; draft 2 m.

Type: Towing. MMSI: 367113120.

Date/timePositionNaut miles runAvg speedWind from/ knotsBaromVisibWave heightAir tempDewpointWater temp
2018-May-25 16:58N 40°38' W 074°04'0 0.0
2018-May-25 16:30N 40°38' W 074°04'0 0.0
2018-May-25 15:29N 40°38' W 074°04'0 0.0
2018-May-25 15:00N 40°38' W 074°04'1 2.8
2018-May-25 14:30N 40°39' W 074°03'2 3.7
2018-May-25 14:00N 40°40' W 074°01'3 0.9
2018-May-25 10:34N 40°38' W 074°04'0 2.9
2018-May-25 10:30N 40°39' W 074°04'0 0.8
2018-May-25 09:59N 40°38' W 074°04'0 0.0
2018-May-25 09:30N 40°38' W 074°04'0 0.0
2018-May-25 08:59N 40°38' W 074°04'0 0.0
2018-May-25 08:30N 40°38' W 074°04'0 0.0
2018-May-25 07:56N 40°38' W 074°04'0 0.0
2018-May-25 07:30N 40°38' W 074°04'0 0.0
2018-May-25 06:52N 40°38' W 074°04'0 0.0
2018-May-25 06:30N 40°38' W 074°04'0 0.0
2018-May-25 06:00N 40°38' W 074°04'0 0.0
2018-May-25 05:30N 40°38' W 074°04'0 0.0
2018-May-25 05:00N 40°38' W 074°04'0 0.0
2018-May-25 04:25N 40°38' W 074°04'0 0.0
2018-May-25 04:00N 40°38' W 074°04'0 0.0
2018-May-25 03:30N 40°38' W 074°04'0 0.0
2018-May-25 02:45N 40°38' W 074°04'0 0.0
2018-May-25 02:27N 40°38' W 074°04'0 0.0
2018-May-25 02:00N 40°38' W 074°04'0 0.0
2018-May-25 01:28N 40°38' W 074°04'0 0.0
2018-May-25 00:57N 40°38' W 074°04'0 0.0
2018-May-25 00:26N 40°38' W 074°04'0 0.0
2018-May-25 00:00N 40°38' W 074°04'0 0.0
2018-May-24 23:30N 40°38' W 074°04'0 0.0
2018-May-24 23:00N 40°38' W 074°04'0 0.0
2018-May-24 22:29N 40°38' W 074°04'0 0.0
2018-May-24 22:00N 40°38' W 074°04'0 0.0
2018-May-24 21:30N 40°38' W 074°04'0 0.0
2018-May-24 20:59N 40°38' W 074°04'0 0.0
2018-May-24 20:30N 40°38' W 074°04'0 0.0
2018-May-24 19:57N 40°38' W 074°04'0 0.0
2018-May-24 19:30N 40°38' W 074°04'0 0.0
2018-May-24 19:00N 40°38' W 074°04'0 0.0
2018-May-24 18:29N 40°38' W 074°04'0 0.0
2018-May-24 18:00N 40°38' W 074°04'0 0.0
2018-May-24 17:30N 40°38' W 074°04'0 0.0
2018-May-24 17:00N 40°38' W 074°04'4 8.0
2018-May-24 16:30N 40°41' W 074°01'4 6.9
2018-May-24 16:00N 40°44' W 073°58'0 0.0
2018-May-24 15:00N 40°44' W 073°58'1 2.7
2018-May-24 14:30N 40°43' W 073°58'1 2.9
2018-May-24 14:00N 40°42' W 074°00'2 4.3
2018-May-24 13:30N 40°40' W 074°02'3 0.1
2018-May-23 18:03N 40°38' W 074°04'0 2.5
2018-May-23 18:00N 40°38' W 074°04'4 3.1
2018-May-23 16:49N 40°39' W 074°09'3 8.2
2018-May-23 16:27N 40°39' W 074°05'3 7.5
2018-May-23 16:00N 40°41' W 074°01'3 6.8
2018-May-23 15:29N 40°44' W 073°58'1 0.1
2018-May-23 05:52N 40°44' W 073°58'3 9.2
2018-May-23 05:30N 40°42' W 074°00'4 0.4
2018-May-22 19:52N 40°38' W 074°04'1 0.7
2018-May-22 18:21N 40°39' W 074°04'3 7.7
2018-May-22 18:00N 40°41' W 074°02'1 1.9
2018-May-22 17:30N 40°42' W 074°01'3 5.3
2018-May-22 16:59N 40°40' W 074°04'1 0.7
2018-May-22 15:03N 40°39' W 074°04'0 8.0
2018-May-22 15:00N 40°39' W 074°04'1 0.8
2018-May-22 14:21N 40°38' W 074°04'0 0.3
2018-May-22 14:00N 40°38' W 074°04'0 0.0
2018-May-22 13:18N 40°38' W 074°04'1 2.2
2018-May-22 13:00N 40°39' W 074°04'3 5.5
2018-May-22 12:30N 40°41' W 074°03'0 0.2
2018-May-22 12:00N 40°41' W 074°03'2 4.3
2018-May-22 11:30N 40°39' W 074°04'1 1.8
2018-May-22 10:53N 40°38' W 074°04'0 0.0
2018-May-22 10:29N 40°38' W 074°04'0 0.0
2018-May-22 10:00N 40°38' W 074°04'0 0.0
2018-May-21 19:47N 40°38' W 074°04'0 0.0
2018-May-21 19:30N 40°38' W 074°04'0 0.0
2018-May-21 18:59N 40°38' W 074°04'0 0.1
2018-May-21 18:28N 40°38' W 074°04'0 0.4
2018-May-21 18:00N 40°38' W 074°04'3 6.0
2018-May-21 17:30N 40°41' W 074°03'0 0.5
2018-May-21 17:00N 40°41' W 074°03'0 0.0
2018-May-21 16:23N 40°41' W 074°03'0 0.4
2018-May-21 16:01N 40°41' W 074°03'3 5.2
2018-May-21 15:29N 40°39' W 074°04'1 0.9
2018-May-21 14:55N 40°38' W 074°04'1 2.7
2018-May-21 14:30N 40°39' W 074°03'2 4.8
2018-May-21 14:00N 40°41' W 074°03'0 0.0
2018-May-21 13:31N 40°41' W 074°03'0 0.0
2018-May-21 13:01N 40°41' W 074°03'1 1.1
2018-May-21 12:31N 40°41' W 074°03'2 4.6
2018-May-21 11:59N 40°39' W 074°04'1 0.7
2018-May-21 11:13N 40°38' W 074°04'  
2018-May-18 16:47N 40°38' W 074°04'1 3.9
2018-May-18 16:31N 40°39' W 074°03'4 6.9
2018-May-18 16:00N 40°42' W 074°01'2 5.0
2018-May-18 15:31N 40°40' W 074°03'2 2.7
2018-May-18 14:38N 40°38' W 074°04'0 0.8
2018-May-18 14:27N 40°38' W 074°04'1 3.1
2018-May-18 14:00N 40°39' W 074°03'2 4.5
2018-May-18 13:31N 40°42' W 074°03'0 0.0
2018-May-18 13:01N 40°42' W 074°03'2 4.7
2018-May-18 12:30N 40°39' W 074°04'1 2.1
2018-May-18 11:57N 40°38' W 074°04'0 0.2
2018-May-18 11:30N 40°38' W 074°04'0 0.0
2018-May-17 19:39N 40°38' W 074°04'0 0.0
2018-May-17 19:30N 40°38' W 074°04'0 0.0
2018-May-17 18:59N 40°38' W 074°04'0 0.0
2018-May-17 18:30N 40°38' W 074°04'0 0.0
2018-May-17 17:57N 40°38' W 074°04'0 0.2
2018-May-17 17:18N 40°38' W 074°04'0 0.2
2018-May-17 16:56N 40°38' W 074°04'0 0.1
2018-May-17 16:28N 40°38' W 074°04'0 0.1
2018-May-17 16:00N 40°38' W 074°04'3 5.4
2018-May-17 15:30N 40°41' W 074°03'1 1.6
2018-May-17 15:00N 40°42' W 074°03'0 0.0
2018-May-17 14:29N 40°42' W 074°03'1 1.1
2018-May-17 14:00N 40°42' W 074°02'2 4.5
2018-May-17 13:30N 40°40' W 074°03'2 3.0
2018-May-17 12:58N 40°38' W 074°04'0 0.0
2018-May-17 12:19N 40°38' W 074°04'0 0.0
2018-May-17 11:50N 40°38' W 074°04'0 0.0
2018-May-17 11:18N 40°38' W 074°04'0 0.0
2018-May-17 11:00N 40°38' W 074°04'0 0.0
2018-May-17 10:25N 40°38' W 074°04'0 0.0
2018-May-17 09:53N 40°38' W 074°04'0 0.0
2018-May-16 17:50N 40°38' W 074°04'0 0.9
2018-May-16 17:30N 40°38' W 074°04'0 0.6
2018-May-16 16:57N 40°38' W 074°04'0 0.1
2018-May-16 16:29N 40°38' W 074°04'1 3.0
2018-May-16 16:00N 40°40' W 074°04'0 0.2
2018-May-16 15:31N 40°40' W 074°04'3 5.5
2018-May-16 15:00N 40°41' W 074°01'1 2.1
2018-May-16 14:30N 40°42' W 074°00'0 0.0
2018-May-16 14:00N 40°42' W 074°00'0 0.0
2018-May-16 13:30N 40°42' W 074°00'0 0.0
2018-May-16 13:00N 40°42' W 074°00'0 0.0
2018-May-16 12:30N 40°42' W 074°00'2 4.4
2018-May-16 12:00N 40°40' W 074°02'3 5.3
2018-May-16 11:30N 40°38' W 074°04'0 0.0
2018-May-16 11:00N 40°38' W 074°04'  
Track history (hours):
 
Tides and Currents Weather Stations Pressure Air Temp Water Temp Dewpoint Dewpoint Depression Visibility Wind Speed Wind Dir Waves Ship Positions

Shawn Miller

Owner: Miller's Tug & Barge, Staten Island, NY. More information available from US FCC via Universal Licensing System and Coast Guard Vessel Documentation Center.

Last reported at 2018-May-25 16:58 UTC. Time now 2018-May-26 23:34 UTC.
Position N 40°38' W 074°04'.

Length 16 m; draft 2 m.

Type: Towing. MMSI: 367113120.

Date/timePositionNaut miles runAvg speedWind from/ knotsBaromVisibWave heightAir tempDewpointWater temp
2018-May-25 16:58N 40°38' W 074°04'0 0.0
2018-May-25 16:30N 40°38' W 074°04'0 0.0
2018-May-25 15:29N 40°38' W 074°04'0 0.0
2018-May-25 15:00N 40°38' W 074°04'1 2.8
2018-May-25 14:30N 40°39' W 074°03'2 3.7
2018-May-25 14:00N 40°40' W 074°01'3 0.9
2018-May-25 10:34N 40°38' W 074°04'0 2.9
2018-May-25 10:30N 40°39' W 074°04'0 0.8
2018-May-25 09:59N 40°38' W 074°04'0 0.0
2018-May-25 09:30N 40°38' W 074°04'0 0.0
2018-May-25 08:59N 40°38' W 074°04'0 0.0
2018-May-25 08:30N 40°38' W 074°04'0 0.0
2018-May-25 07:56N 40°38' W 074°04'0 0.0
2018-May-25 07:30N 40°38' W 074°04'0 0.0
2018-May-25 06:52N 40°38' W 074°04'0 0.0
2018-May-25 06:30N 40°38' W 074°04'0 0.0
2018-May-25 06:00N 40°38' W 074°04'0 0.0
2018-May-25 05:30N 40°38' W 074°04'0 0.0
2018-May-25 05:00N 40°38' W 074°04'0 0.0
2018-May-25 04:25N 40°38' W 074°04'0 0.0
2018-May-25 04:00N 40°38' W 074°04'0 0.0
2018-May-25 03:30N 40°38' W 074°04'0 0.0
2018-May-25 02:45N 40°38' W 074°04'0 0.0
2018-May-25 02:27N 40°38' W 074°04'0 0.0
2018-May-25 02:00N 40°38' W 074°04'0 0.0
2018-May-25 01:28N 40°38' W 074°04'0 0.0
2018-May-25 00:57N 40°38' W 074°04'0 0.0
2018-May-25 00:26N 40°38' W 074°04'0 0.0
2018-May-25 00:00N 40°38' W 074°04'0 0.0
2018-May-24 23:30N 40°38' W 074°04'0 0.0
2018-May-24 23:00N 40°38' W 074°04'0 0.0
2018-May-24 22:29N 40°38' W 074°04'0 0.0
2018-May-24 22:00N 40°38' W 074°04'0 0.0
2018-May-24 21:30N 40°38' W 074°04'0 0.0
2018-May-24 20:59N 40°38' W 074°04'0 0.0
2018-May-24 20:30N 40°38' W 074°04'0 0.0
2018-May-24 19:57N 40°38' W 074°04'0 0.0
2018-May-24 19:30N 40°38' W 074°04'0 0.0
2018-May-24 19:00N 40°38' W 074°04'0 0.0
2018-May-24 18:29N 40°38' W 074°04'0 0.0
2018-May-24 18:00N 40°38' W 074°04'0 0.0
2018-May-24 17:30N 40°38' W 074°04'0 0.0
2018-May-24 17:00N 40°38' W 074°04'4 8.0
2018-May-24 16:30N 40°41' W 074°01'4 6.9
2018-May-24 16:00N 40°44' W 073°58'0 0.0
2018-May-24 15:00N 40°44' W 073°58'1 2.7
2018-May-24 14:30N 40°43' W 073°58'1 2.9
2018-May-24 14:00N 40°42' W 074°00'2 4.3
2018-May-24 13:30N 40°40' W 074°02'3 0.1
2018-May-23 18:03N 40°38' W 074°04'0 2.5
2018-May-23 18:00N 40°38' W 074°04'4 3.1
2018-May-23 16:49N 40°39' W 074°09'3 8.2
2018-May-23 16:27N 40°39' W 074°05'3 7.5
2018-May-23 16:00N 40°41' W 074°01'3 6.8
2018-May-23 15:29N 40°44' W 073°58'1 0.1
2018-May-23 05:52N 40°44' W 073°58'3 9.2
2018-May-23 05:30N 40°42' W 074°00'4 0.4
2018-May-22 19:52N 40°38' W 074°04'1 0.7
2018-May-22 18:21N 40°39' W 074°04'3 7.7
2018-May-22 18:00N 40°41' W 074°02'1 1.9
2018-May-22 17:30N 40°42' W 074°01'3 5.3
2018-May-22 16:59N 40°40' W 074°04'1 0.7
2018-May-22 15:03N 40°39' W 074°04'0 8.0
2018-May-22 15:00N 40°39' W 074°04'1 0.8
2018-May-22 14:21N 40°38' W 074°04'0 0.3
2018-May-22 14:00N 40°38' W 074°04'0 0.0
2018-May-22 13:18N 40°38' W 074°04'1 2.2
2018-May-22 13:00N 40°39' W 074°04'3 5.5
2018-May-22 12:30N 40°41' W 074°03'0 0.2
2018-May-22 12:00N 40°41' W 074°03'2 4.3
2018-May-22 11:30N 40°39' W 074°04'1 1.8
2018-May-22 10:53N 40°38' W 074°04'0 0.0
2018-May-22 10:29N 40°38' W 074°04'0 0.0
2018-May-22 10:00N 40°38' W 074°04'0 0.0
2018-May-21 19:47N 40°38' W 074°04'0 0.0
2018-May-21 19:30N 40°38' W 074°04'0 0.0
2018-May-21 18:59N 40°38' W 074°04'0 0.1
2018-May-21 18:28N 40°38' W 074°04'0 0.4
2018-May-21 18:00N 40°38' W 074°04'3 6.0
2018-May-21 17:30N 40°41' W 074°03'0 0.5
2018-May-21 17:00N 40°41' W 074°03'0 0.0
2018-May-21 16:23N 40°41' W 074°03'0 0.4
2018-May-21 16:01N 40°41' W 074°03'3 5.2
2018-May-21 15:29N 40°39' W 074°04'1 0.9
2018-May-21 14:55N 40°38' W 074°04'1 2.7
2018-May-21 14:30N 40°39' W 074°03'2 4.8
2018-May-21 14:00N 40°41' W 074°03'0 0.0
2018-May-21 13:31N 40°41' W 074°03'0 0.0
2018-May-21 13:01N 40°41' W 074°03'1 1.1
2018-May-21 12:31N 40°41' W 074°03'2 4.6
2018-May-21 11:59N 40°39' W 074°04'1 0.7
2018-May-21 11:13N 40°38' W 074°04'  
2018-May-18 16:47N 40°38' W 074°04'1 3.9
2018-May-18 16:31N 40°39' W 074°03'4 6.9
2018-May-18 16:00N 40°42' W 074°01'2 5.0
2018-May-18 15:31N 40°40' W 074°03'2 2.7
2018-May-18 14:38N 40°38' W 074°04'0 0.8
2018-May-18 14:27N 40°38' W 074°04'1 3.1
2018-May-18 14:00N 40°39' W 074°03'2 4.5
2018-May-18 13:31N 40°42' W 074°03'0 0.0
2018-May-18 13:01N 40°42' W 074°03'2 4.7
2018-May-18 12:30N 40°39' W 074°04'1 2.1
2018-May-18 11:57N 40°38' W 074°04'0 0.2
2018-May-18 11:30N 40°38' W 074°04'0 0.0
2018-May-17 19:39N 40°38' W 074°04'0 0.0
2018-May-17 19:30N 40°38' W 074°04'0 0.0
2018-May-17 18:59N 40°38' W 074°04'0 0.0
2018-May-17 18:30N 40°38' W 074°04'0 0.0
2018-May-17 17:57N 40°38' W 074°04'0 0.2
2018-May-17 17:18N 40°38' W 074°04'0 0.2
2018-May-17 16:56N 40°38' W 074°04'0 0.1
2018-May-17 16:28N 40°38' W 074°04'0 0.1
2018-May-17 16:00N 40°38' W 074°04'3 5.4
2018-May-17 15:30N 40°41' W 074°03'1 1.6
2018-May-17 15:00N 40°42' W 074°03'0 0.0
2018-May-17 14:29N 40°42' W 074°03'1 1.1
2018-May-17 14:00N 40°42' W 074°02'2 4.5
2018-May-17 13:30N 40°40' W 074°03'2 3.0
2018-May-17 12:58N 40°38' W 074°04'0 0.0
2018-May-17 12:19N 40°38' W 074°04'0 0.0
2018-May-17 11:50N 40°38' W 074°04'0 0.0
2018-May-17 11:18N 40°38' W 074°04'0 0.0
2018-May-17 11:00N 40°38' W 074°04'0 0.0
2018-May-17 10:25N 40°38' W 074°04'0 0.0
2018-May-17 09:53N 40°38' W 074°04'0 0.0
2018-May-16 17:50N 40°38' W 074°04'0 0.9
2018-May-16 17:30N 40°38' W 074°04'0 0.6
2018-May-16 16:57N 40°38' W 074°04'0 0.1
2018-May-16 16:29N 40°38' W 074°04'1 3.0
2018-May-16 16:00N 40°40' W 074°04'0 0.2
2018-May-16 15:31N 40°40' W 074°04'3 5.5
2018-May-16 15:00N 40°41' W 074°01'1 2.1
2018-May-16 14:30N 40°42' W 074°00'0 0.0
2018-May-16 14:00N 40°42' W 074°00'0 0.0
2018-May-16 13:30N 40°42' W 074°00'0 0.0
2018-May-16 13:00N 40°42' W 074°00'0 0.0
2018-May-16 12:30N 40°42' W 074°00'2 4.4
2018-May-16 12:00N 40°40' W 074°02'3 5.3
2018-May-16 11:30N 40°38' W 074°04'0 0.0
2018-May-16 11:00N 40°38' W 074°04'  

Dump ship's entire track history